Time;durP1;ratioP1;P1;durP2;ratioP2;P2;SDS_P1;SDS_P2;PMS_P1;PMS_P2;Temp;Humidity;BMP_temperature;BMP_pressure;BME280_temperature;BME280_humidity;BME280_pressure;Samples;Min_cycle;Max_cycle;Signal;HPM_P1;HPM_P2
2021/12/28 00:00:11;;;;;;;23.88;7.75;;;10.80;99.90;;;;;;5016972;28;20025;-77
2021/12/28 00:02:37;;;;;;;113.80;58.13;;;10.90;99.90;;;;;;5019011;28;20018;-77
2021/12/28 00:05:03;;;;;;;260.98;133.73;;;10.90;99.90;;;;;;5019270;28;20030;-77
2021/12/28 00:07:29;;;;;;;63.40;28.20;;;11.00;99.90;;;;;;5017617;28;20112;-77
2021/12/28 00:09:55;;;;;;;82.03;38.88;;;11.00;99.90;;;;;;5017311;28;20065;-77
2021/12/28 00:12:21;;;;;;;42.25;18.85;;;11.00;99.90;;;;;;5018882;28;20101;-78
2021/12/28 00:15:03;;;;;;;22.98;9.48;;;11.00;99.90;;;;;;5018813;28;20109;-77
2021/12/28 00:20:13;;;;;;;24.83;8.70;;;10.90;99.90;;;;;;5018705;28;20076;-78
2021/12/28 00:22:39;;;;;;;15.40;6.38;;;10.90;99.90;;;;;;5018805;28;20026;-78
2021/12/28 00:25:05;;;;;;;37.00;18.50;;;10.90;99.90;;;;;;5004940;28;20561;-78
2021/12/28 00:27:31;;;;;;;271.38;137.38;;;10.80;99.90;;;;;;5018455;28;20067;-78
2021/12/28 00:29:57;;;;;;;109.05;56.47;;;10.80;99.90;;;;;;5017131;28;20372;-78
2021/12/28 00:32:23;;;;;;;28.55;13.23;;;10.70;99.90;;;;;;5018578;28;20026;-78
2021/12/28 00:34:49;;;;;;;22.42;9.77;;;10.70;99.90;;;;;;5016901;28;20037;-78
2021/12/28 00:37:15;;;;;;;49.75;22.02;;;10.70;99.90;;;;;;5017273;28;20042;-77
2021/12/28 00:39:40;;;;;;;333.65;170.35;;;10.60;99.90;;;;;;5018085;28;20030;-78
2021/12/28 00:42:08;;;;;;;77.30;40.90;;;10.60;99.90;;;;;;5017092;28;20029;-78
2021/12/28 00:44:34;;;;;;;42.08;21.50;;;10.50;99.90;;;;;;5016888;28;20033;-78
2021/12/28 00:46:59;;;;;;;117.30;59.03;;;10.50;99.90;;;;;;5017062;28;20482;-77
2021/12/28 00:49:25;;;;;;;38.65;20.45;;;10.50;99.90;;;;;;5018043;28;20482;-77
2021/12/28 00:51:51;;;;;;;27.83;12.65;;;10.50;99.90;;;;;;5018163;28;20029;-77
2021/12/28 00:54:18;;;;;;;158.35;85.18;;;10.40;99.90;;;;;;5017829;28;20022;-78
2021/12/28 00:56:44;;;;;;;83.43;41.67;;;10.40;99.90;;;;;;5016764;28;20036;-77
2021/12/28 00:59:09;;;;;;;90.25;52.03;;;10.40;99.90;;;;;;5018044;28;20398;-78
2021/12/28 01:01:35;;;;;;;19.95;10.85;;;10.40;99.90;;;;;;5018071;28;20021;-77
2021/12/28 01:04:01;;;;;;;29.63;9.60;;;10.40;99.90;;;;;;5017851;28;20405;-77
2021/12/28 01:06:27;;;;;;;32.33;16.55;;;10.50;99.90;;;;;;5018090;28;20025;-77
2021/12/28 01:08:53;;;;;;;92.93;50.35;;;10.40;99.90;;;;;;5017576;28;20058;-77
2021/12/28 01:11:19;;;;;;;26.77;13.77;;;10.40;99.90;;;;;;5017764;28;20022;-77
2021/12/28 01:13:44;;;;;;;23.08;8.98;;;10.50;99.90;;;;;;5016366;28;20052;-77
2021/12/28 01:16:13;;;;;;;60.08;27.83;;;10.40;99.90;;;;;;5017714;28;20026;-77
2021/12/28 01:18:42;;;;;;;36.58;18.50;;;10.40;99.90;;;;;;5016214;28;20030;-77
2021/12/28 01:21:08;;;;;;;21.08;9.57;;;10.40;99.90;;;;;;5017793;28;20022;-77
2021/12/28 01:23:34;;;;;;;33.75;9.18;;;10.40;99.90;;;;;;5015584;28;20021;-77
2021/12/28 01:26:01;;;;;;;53.25;29.38;;;10.40;99.90;;;;;;5004607;28;20034;-77
2021/12/28 01:28:27;;;;;;;16.02;7.80;;;10.40;99.90;;;;;;5017666;28;20154;-77
2021/12/28 01:30:53;;;;;;;65.85;33.80;;;10.40;99.90;;;;;;5017832;28;20046;-77
2021/12/28 01:33:19;;;;;;;74.25;39.30;;;10.40;99.90;;;;;;5016189;28;20028;-77
2021/12/28 01:35:45;;;;;;;21.35;11.40;;;10.40;99.90;;;;;;5015937;28;20063;-77
2021/12/28 01:38:10;;;;;;;90.80;46.20;;;10.40;99.90;;;;;;5017441;28;20026;-77
2021/12/28 01:40:40;;;;;;;36.88;18.05;;;10.40;99.90;;;;;;5016411;28;20037;-76
2021/12/28 01:43:12;;;;;;;190.32;94.05;;;10.40;99.90;;;;;;5017260;28;20026;-77
2021/12/28 01:45:40;;;;;;;193.90;97.93;;;10.40;99.90;;;;;;5016088;28;20572;-76
2021/12/28 01:48:07;;;;;;;60.53;28.95;;;10.40;99.90;;;;;;5020240;28;20034;-76
2021/12/28 01:50:34;;;;;;;186.48;88.25;;;10.40;99.90;;;;;;5028341;28;20497;-76
2021/12/28 01:53:00;;;;;;;50.72;23.63;;;10.30;99.90;;;;;;5017290;28;20026;-76
2021/12/28 01:55:26;;;;;;;72.50;34.50;;;10.30;99.90;;;;;;5017208;28;20061;-77
2021/12/28 01:57:52;;;;;;;135.40;66.20;;;10.30;99.90;;;;;;5017286;28;20022;-76
2021/12/28 02:00:18;;;;;;;135.73;66.38;;;10.30;99.90;;;;;;5017376;28;20522;-76
2021/12/28 02:02:44;;;;;;;136.50;68.07;;;10.30;99.90;;;;;;5017397;28;20018;-76
2021/12/28 02:05:10;;;;;;;26.77;10.90;;;10.30;99.90;;;;;;5017394;28;20030;-77
2021/12/28 02:07:36;;;;;;;38.00;18.27;;;10.30;99.90;;;;;;5010645;28;20080;-77
2021/12/28 02:10:03;;;;;;;104.00;47.83;;;10.30;99.90;;;;;;5015674;28;20093;-77
2021/12/28 02:12:29;;;;;;;269.42;128.52;;;10.30;99.90;;;;;;5015849;28;20371;-77
2021/12/28 02:14:55;;;;;;;119.35;57.47;;;10.30;99.90;;;;;;5015786;28;20099;-77
2021/12/28 02:17:21;;;;;;;58.92;27.38;;;10.30;99.90;;;;;;5016976;28;20018;-77
2021/12/28 02:19:47;;;;;;;33.25;14.82;;;10.30;99.90;;;;;;5017144;28;20092;-77
2021/12/28 02:22:13;;;;;;;20.98;9.57;;;10.30;99.90;;;;;;5017901;28;20034;-77
2021/12/28 02:24:38;;;;;;;65.80;25.50;;;10.30;99.90;;;;;;5020819;28;20029;-77
2021/12/28 02:27:04;;;;;;;40.90;18.42;;;10.30;99.90;;;;;;5020686;28;20030;-77
2021/12/28 02:29:30;;;;;;;120.88;48.63;;;10.30;99.90;;;;;;5019493;28;20021;-78
2021/12/28 02:31:56;;;;;;;189.25;74.47;;;10.30;99.90;;;;;;5020698;28;20022;-77
2021/12/28 02:34:25;;;;;;;205.23;85.55;;;10.30;99.90;;;;;;5020767;28;20077;-78
2021/12/28 02:36:51;;;;;;;148.45;62.42;;;10.30;99.90;;;;;;5020092;28;20034;-77
2021/12/28 02:39:18;;;;;;;73.97;32.10;;;10.30;99.90;;;;;;5019138;28;20026;-77
2021/12/28 02:41:44;;;;;;;197.23;85.72;;;10.30;99.90;;;;;;5019125;28;20022;-77
2021/12/28 02:44:09;;;;;;;25.67;12.00;;;10.40;99.90;;;;;;5019299;28;20026;-77
2021/12/28 02:46:35;;;;;;;154.07;70.43;;;10.40;99.90;;;;;;5019062;28;20560;-77
2021/12/28 02:49:02;;;;;;;421.73;212.85;;;10.40;99.90;;;;;;5020726;28;20060;-76
2021/12/28 02:51:28;;;;;;;228.85;104.95;;;10.50;99.90;;;;;;5020263;28;20032;-77
2021/12/28 02:53:54;;;;;;;18.92;6.57;;;10.50;99.90;;;;;;5020268;28;20057;-78
2021/12/28 02:56:21;;;;;;;112.43;54.00;;;10.50;99.90;;;;;;5020049;28;20379;-77
2021/12/28 02:58:50;;;;;;;66.32;30.73;;;10.90;99.90;;;;;;5019004;28;20026;-78
2021/12/28 03:01:21;;;;;;;14.60;5.82;;;10.90;99.90;;;;;;5018884;28;20018;-77
2021/12/28 03:03:51;;;;;;;13.00;5.25;;;11.20;99.90;;;;;;5018933;28;20026;-77
2021/12/28 03:06:21;;;;;;;9.52;5.25;;;11.40;99.90;;;;;;5020250;28;20033;-77
2021/12/28 03:08:53;;;;;;;48.13;24.67;;;11.50;99.90;;;;;;5019935;28;20061;-78
2021/12/28 03:11:20;;;;;;;18.23;8.02;;;11.50;99.90;;;;;;5020112;28;20101;-78
2021/12/28 03:13:49;;;;;;;11.07;4.97;;;11.50;99.90;;;;;;5018639;28;20080;-77
2021/12/28 03:16:16;;;;;;;8.63;3.95;;;11.60;99.90;;;;;;5018958;28;20463;-78
2021/12/28 03:18:43;;;;;;;11.45;4.55;;;11.70;99.90;;;;;;5019981;28;20026;-78
2021/12/28 03:21:10;;;;;;;6.55;3.75;;;11.90;99.90;;;;;;5002436;28;20112;-77
2021/12/28 03:23:37;;;;;;;11.27;3.75;;;12.00;99.90;;;;;;5018268;28;20033;-78
2021/12/28 03:26:05;;;;;;;10.55;4.22;;;12.10;99.90;;;;;;5018605;28;20022;-77
2021/12/28 03:28:33;;;;;;;11.52;3.75;;;12.20;99.90;;;;;;5019576;28;20490;-77
2021/12/28 03:31:00;;;;;;;7.93;3.60;;;12.30;99.90;;;;;;5019840;28;20026;-77
2021/12/28 03:33:32;;;;;;;6.10;3.50;;;12.40;99.90;;;;;;5017488;28;20025;-77
2021/12/28 03:35:58;;;;;;;9.52;4.43;;;12.50;99.90;;;;;;5019400;28;20026;-77
2021/12/28 03:38:25;;;;;;;9.27;3.83;;;12.70;99.90;;;;;;5019155;28;20151;-77
2021/12/28 03:40:51;;;;;;;12.05;4.90;;;12.70;99.90;;;;;;5018028;28;20026;-77
2021/12/28 03:43:18;;;;;;;26.15;13.15;;;12.80;99.90;;;;;;5017927;28;20022;-77
2021/12/28 03:45:44;;;;;;;8.85;4.47;;;12.80;99.90;;;;;;5019519;28;20061;-76
2021/12/28 03:48:11;;;;;;;11.98;4.45;;;12.80;99.90;;;;;;5019318;28;20496;-76
2021/12/28 03:50:37;;;;;;;11.82;3.90;;;12.90;99.90;;;;;;5018097;28;20034;-77
2021/12/28 03:53:04;;;;;;;9.07;3.97;;;12.90;99.90;;;;;;5017916;28;20478;-77
2021/12/28 03:55:30;;;;;;;11.90;4.20;;;12.90;99.90;;;;;;5019333;28;20025;-77
2021/12/28 03:57:59;;;;;;;10.23;3.60;;;12.90;99.90;;;;;;5018979;28;20525;-77
2021/12/28 04:00:27;;;;;;;10.00;3.30;;;13.00;99.90;;;;;;5019250;28;20026;-77
2021/12/28 04:02:53;;;;;;;12.45;4.70;;;12.90;99.90;;;;;;5019000;28;20018;-76
2021/12/28 04:05:19;;;;;;;9.00;4.50;;;13.00;99.90;;;;;;5019087;28;20036;-77
2021/12/28 04:07:46;;;;;;;16.42;4.35;;;12.90;99.90;;;;;;5018799;28;20121;-77
2021/12/28 04:10:12;;;;;;;14.43;4.95;;;12.90;99.90;;;;;;5018892;28;20030;-76
2021/12/28 04:12:39;;;;;;;12.27;4.25;;;12.80;99.90;;;;;;5017570;28;20022;-76
2021/12/28 04:15:08;;;;;;;17.38;4.20;;;12.80;99.90;;;;;;5018988;28;20057;-76
2021/12/28 04:17:37;;;;;;;10.73;4.22;;;12.70;99.90;;;;;;5018677;28;20022;-77
2021/12/28 04:20:12;;;;;;;11.77;4.13;;;12.60;99.90;;;;;;5018768;28;20101;-76
2021/12/28 04:22:39;;;;;;;11.52;4.35;;;12.70;99.90;;;;;;5018783;28;20414;-76
2021/12/28 04:25:06;;;;;;;12.05;4.13;;;12.60;99.90;;;;;;5018473;28;20394;-77
2021/12/28 04:27:32;;;;;;;14.90;4.82;;;12.80;99.90;;;;;;5017462;28;20565;-77
2021/12/28 04:29:58;;;;;;;12.38;3.78;;;12.80;99.90;;;;;;5018809;28;20462;-77
2021/12/28 04:32:24;;;;;;;10.77;3.92;;;12.90;99.90;;;;;;5018618;28;20037;-77
2021/12/28 04:34:50;;;;;;;11.27;3.92;;;13.00;99.90;;;;;;5016945;28;20513;-77
2021/12/28 04:37:16;;;;;;;13.52;4.68;;;13.00;99.90;;;;;;5010068;28;20030;-77
2021/12/28 04:39:42;;;;;;;13.90;3.58;;;13.00;99.90;;;;;;5023670;28;20057;-76
2021/12/28 04:42:08;;;;;;;12.90;3.60;;;13.00;99.90;;;;;;5037969;28;20032;-77
2021/12/28 04:44:34;;;;;;;15.15;3.75;;;13.10;99.90;;;;;;5020006;28;20493;-76
2021/12/28 04:47:00;;;;;;;11.93;4.32;;;13.10;99.90;;;;;;5036614;28;20051;-76
2021/12/28 04:49:28;;;;;;;17.02;4.30;;;13.00;99.90;;;;;;5037923;28;20535;-76
2021/12/28 04:51:54;;;;;;;11.38;4.13;;;12.80;99.90;;;;;;5036642;28;20389;-76
2021/12/28 04:54:21;;;;;;;18.67;5.70;;;12.80;99.90;;;;;;5037615;28;20517;-76
2021/12/28 04:56:47;;;;;;;14.55;4.20;;;12.60;99.90;;;;;;5037964;28;20040;-76
2021/12/28 04:59:16;;;;;;;8.15;3.60;;;12.60;99.90;;;;;;5037751;28;20100;-77
2021/12/28 05:01:42;;;;;;;13.55;4.60;;;12.60;99.90;;;;;;5037848;28;20021;-76
2021/12/28 05:04:08;;;;;;;11.52;3.97;;;12.60;99.90;;;;;;5037606;28;20084;-77
2021/12/28 05:06:35;;;;;;;12.60;3.90;;;12.60;99.90;;;;;;5037941;28;20068;-76
2021/12/28 05:09:07;;;;;;;14.40;4.85;;;12.60;99.90;;;;;;5035973;28;20053;-76
2021/12/28 05:11:33;;;;;;;15.32;4.47;;;12.60;99.90;;;;;;5037587;28;20030;-76
2021/12/28 05:14:00;;;;;;;13.65;4.28;;;12.60;99.90;;;;;;5037475;28;20017;-76
2021/12/28 05:16:29;;;;;;;12.38;4.32;;;12.50;99.90;;;;;;5036065;28;20504;-76
2021/12/28 05:18:56;;;;;;;11.60;4.50;;;12.50;99.90;;;;;;5034527;28;20041;-77
2021/12/28 05:21:22;;;;;;;12.75;3.97;;;12.50;99.90;;;;;;5016571;28;20026;-76
2021/12/28 05:23:47;;;;;;;12.10;4.18;;;12.40;99.90;;;;;;5016043;28;20029;-77
2021/12/28 05:26:13;;;;;;;10.23;4.05;;;12.50;99.90;;;;;;5016425;28;20036;-77
2021/12/28 05:28:39;;;;;;;17.38;4.60;;;12.50;99.90;;;;;;5017383;28;20076;-77
2021/12/28 05:31:05;;;;;;;9.98;3.58;;;12.50;99.90;;;;;;5014258;28;20104;-77
2021/12/28 05:33:31;;;;;;;12.70;4.00;;;12.40;99.90;;;;;;5016590;28;20025;-77
2021/12/28 05:35:56;;;;;;;11.30;4.05;;;12.40;99.90;;;;;;5017435;28;20455;-76
2021/12/28 05:38:22;;;;;;;11.30;3.72;;;12.50;99.90;;;;;;5017227;28;20108;-77
2021/12/28 05:40:48;;;;;;;11.65;3.67;;;12.50;99.90;;;;;;5017597;28;20026;-77
2021/12/28 05:43:14;;;;;;;12.90;4.55;;;12.50;99.90;;;;;;5015927;28;20033;-77
2021/12/28 05:45:41;;;;;;;13.48;4.72;;;12.60;99.90;;;;;;5016046;28;20037;-76
2021/12/28 05:48:06;;;;;;;12.70;3.65;;;12.60;99.90;;;;;;5017216;28;20064;-77
2021/12/28 05:50:32;;;;;;;10.80;4.40;;;12.50;99.90;;;;;;5016250;28;20582;-77
2021/12/28 05:52:58;;;;;;;10.30;3.67;;;12.40;99.90;;;;;;5017138;28;20058;-77
2021/12/28 05:55:24;;;;;;;13.63;4.50;;;12.20;99.90;;;;;;5017117;28;20026;-76
2021/12/28 05:57:49;;;;;;;16.50;5.53;;;12.20;99.90;;;;;;5019016;28;20030;-77
2021/12/28 06:00:16;;;;;;;21.27;8.15;;;12.10;99.90;;;;;;5021504;28;20370;-77
2021/12/28 06:02:42;;;;;;;18.58;7.63;;;12.00;99.90;;;;;;5021276;28;20050;-77
2021/12/28 06:05:09;;;;;;;22.20;7.78;;;11.90;99.90;;;;;;5021382;28;20032;-77
2021/12/28 06:07:35;;;;;;;15.68;6.30;;;11.80;99.90;;;;;;5021352;28;20441;-77
2021/12/28 06:10:00;;;;;;;17.38;5.07;;;11.80;99.90;;;;;;5021043;28;20046;-77
2021/12/28 06:12:26;;;;;;;13.25;4.63;;;11.80;99.90;;;;;;5020919;28;20032;-77
2021/12/28 06:14:52;;;;;;;12.43;5.03;;;11.80;99.90;;;;;;5021207;28;20034;-77
2021/12/28 06:17:18;;;;;;;13.52;4.68;;;11.90;99.90;;;;;;5019628;28;20022;-77
2021/12/28 06:19:44;;;;;;;11.07;4.45;;;11.90;99.90;;;;;;5021095;28;20032;-77
2021/12/28 06:22:10;;;;;;;12.80;4.50;;;12.00;99.90;;;;;;5021100;28;20490;-77
2021/12/28 06:24:36;;;;;;;9.88;4.25;;;12.00;99.90;;;;;;5020930;28;20068;-76
2021/12/28 06:27:02;;;;;;;10.18;3.50;;;12.20;99.90;;;;;;5020693;28;20030;-76
2021/12/28 06:29:28;;;;;;;8.05;4.70;;;12.50;99.90;;;;;;5020954;28;20022;-77
2021/12/28 06:31:53;;;;;;;14.45;4.13;;;12.60;99.90;;;;;;5019346;28;20025;-77
2021/12/28 06:34:19;;;;;;;13.13;4.00;;;12.70;99.90;;;;;;5020785;28;20026;-76
2021/12/28 06:36:45;;;;;;;16.58;4.82;;;12.70;99.90;;;;;;5019126;28;20037;-76
2021/12/28 06:39:11;;;;;;;15.32;4.05;;;12.80;99.90;;;;;;5019101;28;20402;-77
2021/12/28 06:41:38;;;;;;;9.85;4.82;;;12.80;99.90;;;;;;5020457;28;20457;-77
2021/12/28 06:44:07;;;;;;;14.52;3.88;;;12.80;99.90;;;;;;5020677;28;20060;-76
2021/12/28 06:46:33;;;;;;;10.27;4.00;;;12.70;99.90;;;;;;5020419;28;20034;-77
2021/12/28 06:48:58;;;;;;;16.27;4.93;;;12.70;99.90;;;;;;5020599;28;20033;-76
2021/12/28 06:51:24;;;;;;;17.42;4.97;;;12.80;99.90;;;;;;5020275;28;20069;-76
2021/12/28 06:53:50;;;;;;;10.85;3.65;;;12.90;99.90;;;;;;5020294;28;20064;-76
2021/12/28 06:56:16;;;;;;;10.50;3.70;;;13.00;99.90;;;;;;5020171;28;20033;-77
2021/12/28 06:58:42;;;;;;;14.75;4.00;;;13.00;99.90;;;;;;5018071;28;20109;-77
2021/12/28 07:01:08;;;;;;;16.60;3.80;;;13.00;99.90;;;;;;5035745;28;20491;-77
2021/12/28 07:03:34;;;;;;;13.45;3.67;;;12.90;99.90;;;;;;5040065;28;20026;-77
2021/12/28 07:06:00;;;;;;;8.35;3.42;;;12.80;99.90;;;;;;5039909;28;20021;-77
2021/12/28 07:08:26;;;;;;;11.88;3.70;;;12.80;99.90;;;;;;5038116;28;20052;-77
2021/12/28 07:10:52;;;;;;;12.00;3.35;;;12.80;99.90;;;;;;5038483;28;20034;-77
2021/12/28 07:13:18;;;;;;;8.93;3.20;;;12.70;99.90;;;;;;5039861;28;20490;-77
2021/12/28 07:15:43;;;;;;;12.70;4.15;;;12.70;99.90;;;;;;5038386;28;20103;-76
2021/12/28 07:18:09;;;;;;;13.75;3.85;;;12.70;99.90;;;;;;5039815;28;20026;-76
2021/12/28 07:20:35;;;;;;;11.02;3.70;;;12.80;99.90;;;;;;5022812;28;20034;-76
2021/12/28 07:23:01;;;;;;;18.73;5.20;;;12.70;99.90;;;;;;5018664;28;20025;-76
2021/12/28 07:25:29;;;;;;;14.82;4.40;;;12.70;99.90;;;;;;5019515;28;20026;-77
2021/12/28 07:27:55;;;;;;;14.52;4.10;;;12.70;99.90;;;;;;5019814;28;20025;-77
2021/12/28 07:30:21;;;;;;;8.82;3.30;;;12.70;99.90;;;;;;5019726;28;20108;-76
2021/12/28 07:32:48;;;;;;;13.25;3.88;;;12.60;99.90;;;;;;5020004;28;20030;-77
2021/12/28 07:35:14;;;;;;;5.40;3.00;;;12.60;99.90;;;;;;5019409;28;20030;-78
2021/12/28 07:37:40;;;;;;;12.60;3.78;;;12.60;99.90;;;;;;5019670;28;20058;-77
2021/12/28 07:40:07;;;;;;;10.05;3.60;;;12.60;99.90;;;;;;5019376;28;20080;-77
2021/12/28 07:42:35;;;;;;;10.40;3.58;;;12.60;99.90;;;;;;5013608;28;20089;-77
2021/12/28 07:45:04;;;;;;;11.32;3.80;;;12.60;99.90;;;;;;5016740;28;20500;-77
2021/12/28 07:47:31;;;;;;;15.13;3.78;;;12.60;99.90;;;;;;5018144;28;20113;-77
2021/12/28 07:49:57;;;;;;;9.15;3.67;;;12.70;99.90;;;;;;5018212;28;20089;-76
2021/12/28 07:52:22;;;;;;;15.85;4.45;;;12.70;99.90;;;;;;5019449;28;20439;-76
2021/12/28 07:54:48;;;;;;;8.90;3.60;;;12.80;99.90;;;;;;5018906;28;20049;-76
2021/12/28 07:57:14;;;;;;;11.85;3.80;;;12.80;99.90;;;;;;5019112;28;20056;-76
2021/12/28 07:59:40;;;;;;;11.57;3.38;;;12.80;99.90;;;;;;5017905;28;20030;-76
2021/12/28 08:02:06;;;;;;;13.10;3.92;;;12.90;99.90;;;;;;5019215;28;20077;-76
2021/12/28 08:04:31;;;;;;;16.00;4.43;;;13.00;99.90;;;;;;5019099;28;20401;-76
2021/12/28 08:06:57;;;;;;;10.90;4.88;;;12.90;99.90;;;;;;5019140;28;20025;-77
2021/12/28 08:09:23;;;;;;;11.77;4.57;;;12.90;99.90;;;;;;5017072;28;20053;-77
2021/12/28 08:11:49;;;;;;;8.07;3.42;;;13.00;99.90;;;;;;5018961;28;20057;-76
2021/12/28 08:14:15;;;;;;;10.23;3.58;;;13.00;99.90;;;;;;5017131;28;20056;-77
2021/12/28 08:16:41;;;;;;;12.27;4.50;;;13.10;99.90;;;;;;5018986;28;20022;-75
2021/12/28 08:19:08;;;;;;;9.88;3.67;;;13.10;99.90;;;;;;5017645;28;20026;-76
2021/12/28 08:21:34;;;;;;;12.02;4.78;;;13.10;99.90;;;;;;5017746;28;20061;-75
2021/12/28 08:24:00;;;;;;;11.80;3.40;;;13.20;99.90;;;;;;5017068;28;20029;-75
2021/12/28 08:26:26;;;;;;;11.27;4.20;;;13.20;99.90;;;;;;5018187;28;20041;-75
2021/12/28 08:28:52;;;;;;;10.98;3.45;;;13.20;99.90;;;;;;5018545;28;20024;-75
2021/12/28 08:31:18;;;;;;;12.27;3.33;;;13.20;99.90;;;;;;5018271;28;20097;-75
2021/12/28 08:33:43;;;;;;;13.55;3.97;;;13.30;99.90;;;;;;5031869;28;20026;-76
2021/12/28 08:36:09;;;;;;;10.93;3.90;;;13.30;99.90;;;;;;5043879;28;20076;-75
2021/12/28 08:38:35;;;;;;;9.65;5.05;;;13.30;99.90;;;;;;5017822;28;20032;-75
2021/12/28 08:41:01;;;;;;;15.50;3.85;;;13.40;99.90;;;;;;5017733;28;20024;-75
2021/12/28 08:43:27;;;;;;;8.48;2.75;;;13.40;99.90;;;;;;5017542;28;20030;-75
2021/12/28 08:45:53;;;;;;;8.40;3.75;;;13.30;99.90;;;;;;5017781;28;20465;-75
2021/12/28 08:48:19;;;;;;;9.18;3.38;;;13.20;99.90;;;;;;5017651;28;20053;-75
2021/12/28 08:50:45;;;;;;;9.93;3.53;;;13.10;99.90;;;;;;5016808;28;20080;-75
2021/12/28 08:53:11;;;;;;;8.50;4.32;;;13.00;99.90;;;;;;5014845;28;20062;-75
2021/12/28 08:55:39;;;;;;;12.15;3.70;;;13.00;99.90;;;;;;5012386;28;20030;-75
2021/12/28 08:58:05;;;;;;;9.88;3.35;;;13.00;99.90;;;;;;5017891;28;20105;-75
2021/12/28 09:00:33;;;;;;;8.13;3.88;;;13.00;99.90;;;;;;5018049;28;20120;-76
2021/12/28 09:02:59;;;;;;;6.40;3.20;;;13.10;99.90;;;;;;5018030;28;20050;-76
2021/12/28 09:05:27;;;;;;;15.98;4.05;;;13.10;99.90;;;;;;5017996;28;20028;-76
2021/12/28 09:07:54;;;;;;;9.35;4.13;;;13.10;99.90;;;;;;5009341;28;20042;-76
2021/12/28 09:10:20;;;;;;;10.27;3.38;;;13.10;99.90;;;;;;5016261;28;20030;-76
2021/12/28 09:12:46;;;;;;;11.48;3.63;;;13.20;99.90;;;;;;5017678;28;20405;-75
2021/12/28 09:15:12;;;;;;;13.30;4.18;;;13.20;99.90;;;;;;5017740;28;20022;-76
2021/12/28 09:17:39;;;;;;;12.15;4.20;;;13.30;99.90;;;;;;5017285;28;20026;-77
2021/12/28 09:20:10;;;;;;;17.48;4.20;;;13.30;99.90;;;;;;5017135;28;20505;-76
2021/12/28 09:22:36;;;;;;;6.25;3.10;;;13.40;99.90;;;;;;5003402;28;20095;-76
2021/12/28 09:25:03;;;;;;;12.35;3.22;;;13.40;99.90;;;;;;5015876;28;20112;-76
2021/12/28 09:27:29;;;;;;;14.63;4.45;;;13.50;99.90;;;;;;5017679;28;20029;-76
2021/12/28 09:29:55;;;;;;;15.45;3.78;;;13.50;99.90;;;;;;5016305;28;20421;-76
2021/12/28 09:32:20;;;;;;;12.93;3.30;;;13.60;99.90;;;;;;5017264;28;20498;-76
2021/12/28 09:34:50;;;;;;;10.23;3.90;;;13.60;99.90;;;;;;5017226;28;20093;-76
2021/12/28 09:37:16;;;;;;;10.40;3.88;;;13.60;99.90;;;;;;5016641;28;20387;-76
2021/12/28 09:39:42;;;;;;;11.18;3.60;;;13.70;99.90;;;;;;5016815;28;20018;-76
2021/12/28 09:42:09;;;;;;;17.38;3.95;;;13.70;99.90;;;;;;5016581;28;20514;-76
2021/12/28 09:44:35;;;;;;;11.00;3.40;;;13.70;99.90;;;;;;5017313;28;20025;-75
2021/12/28 09:47:02;;;;;;;11.15;4.18;;;13.70;99.90;;;;;;5017265;28;20033;-76
2021/12/28 09:49:28;;;;;;;10.68;3.85;;;13.80;99.90;;;;;;5017158;28;20056;-76
2021/12/28 09:51:58;;;;;;;12.02;4.38;;;13.90;99.90;;;;;;5017420;28;20116;-76
2021/12/28 09:54:26;;;;;;;8.55;3.28;;;13.90;99.90;;;;;;5017006;28;20510;-76
2021/12/28 09:56:55;;;;;;;9.32;3.17;;;14.00;99.90;;;;;;5017129;28;20026;-76
2021/12/28 09:59:22;;;;;;;9.50;3.22;;;14.20;99.90;;;;;;5017145;28;20018;-76
2021/12/28 10:01:48;;;;;;;6.15;3.10;;;14.30;99.90;;;;;;5017292;28;20018;-75
2021/12/28 10:04:13;;;;;;;9.52;3.25;;;14.40;99.90;;;;;;5016981;28;20092;-76
2021/12/28 10:06:39;;;;;;;8.48;2.70;;;14.50;99.90;;;;;;5016439;28;20443;-75
2021/12/28 10:09:15;;;;;;;8.27;3.20;;;14.50;99.90;;;;;;5015375;28;20494;-75
2021/12/28 10:11:53;;;;;;;13.57;3.20;;;14.60;99.90;;;;;;5015817;28;20093;-77
2021/12/28 10:14:23;;;;;;;14.77;3.08;;;14.60;99.90;;;;;;5017113;28;20084;-76
2021/12/28 10:16:51;;;;;;;10.70;3.25;;;14.60;99.90;;;;;;5017017;28;20474;-76
2021/12/28 10:19:38;;;;;;;13.70;4.18;;;14.50;99.90;;;;;;5015561;28;20061;-76
2021/12/28 10:22:21;;;;;;;11.05;4.00;;;14.50;99.90;;;;;;5016994;28;20030;-76
2021/12/28 10:24:49;;;;;;;11.68;3.60;;;14.50;99.90;;;;;;5016830;28;20053;-77
2021/12/28 10:27:18;;;;;;;7.28;2.75;;;14.50;99.90;;;;;;5016850;28;20394;-75
2021/12/28 10:29:44;;;;;;;10.48;3.25;;;14.60;99.90;;;;;;5016991;28;20025;-76
2021/12/28 10:32:18;;;;;;;9.07;3.08;;;14.70;99.90;;;;;;5016890;28;20556;-76
2021/12/28 10:34:55;;;;;;;9.07;3.70;;;14.70;99.90;;;;;;5015444;28;20025;-77
2021/12/28 10:37:32;;;;;;;10.93;2.80;;;14.90;99.90;;;;;;5013707;28;20025;-75
2021/12/28 10:39:59;;;;;;;7.03;2.85;;;15.00;99.90;;;;;;5036351;28;20056;-76
2021/12/28 10:42:48;;;;;;;9.45;2.40;;;15.10;99.90;;;;;;5036597;28;20474;-76
2021/12/28 10:45:21;;;;;;;13.00;3.42;;;15.10;99.90;;;;;;5040095;28;20031;-76
2021/12/28 10:47:48;;;;;;;19.20;3.95;;;15.10;99.90;;;;;;5040232;28;20025;-76
2021/12/28 10:50:21;;;;;;;10.70;3.65;;;15.00;99.90;;;;;;5040429;28;20062;-77
2021/12/28 10:52:51;;;;;;;11.43;4.13;;;15.10;99.90;;;;;;5038798;28;20124;-77
2021/12/28 10:55:25;;;;;;;14.75;4.38;;;15.00;99.90;;;;;;5040048;28;20040;-75
2021/12/28 10:57:52;;;;;;;11.05;3.28;;;15.00;99.90;;;;;;5025957;28;20045;-76
2021/12/28 11:00:43;;;;;;;10.57;4.07;;;15.00;99.90;;;;;;5017591;28;20486;-76
2021/12/28 11:03:16;;;;;;;13.13;3.50;;;15.00;99.90;;;;;;5016828;28;20030;-77
2021/12/28 11:05:44;;;;;;;11.18;3.50;;;15.00;99.90;;;;;;5020114;28;20026;-76
2021/12/28 11:08:10;;;;;;;7.35;3.03;;;15.00;99.90;;;;;;5018473;28;20532;-75
2021/12/28 11:10:51;;;;;;;10.68;3.22;;;14.90;99.90;;;;;;5019822;28;20097;-76
2021/12/28 11:13:27;;;;;;;13.43;3.80;;;14.80;99.90;;;;;;5008070;28;20482;-75
2021/12/28 11:15:53;;;;;;;11.30;2.90;;;14.80;99.90;;;;;;5028476;28;20090;-75
2021/12/28 11:18:30;;;;;;;9.60;3.10;;;14.70;99.90;;;;;;5019690;28;20026;-76
2021/12/28 11:20:57;;;;;;;10.68;3.63;;;14.60;99.90;;;;;;5018542;28;20018;-76
2021/12/28 11:23:25;;;;;;;15.75;3.65;;;14.40;99.90;;;;;;5018981;28;20026;-77
2021/12/28 11:26:20;;;;;;;12.75;2.95;;;14.20;99.90;;;;;;5019851;28;20048;-76
2021/12/28 11:29:08;;;;;;;6.72;2.70;;;13.90;99.90;;;;;;5016242;28;20045;-77
2021/12/28 11:31:40;;;;;;;7.95;3.22;;;13.70;99.90;;;;;;5019672;28;20037;-78
2021/12/28 11:34:11;;;;;;;16.23;4.43;;;13.50;99.90;;;;;;5019473;28;20030;-78
2021/12/28 11:36:47;;;;;;;14.88;3.55;;;13.40;99.90;;;;;;5017947;28;20022;-77
2021/12/28 11:39:16;;;;;;;13.93;4.53;;;13.30;99.90;;;;;;5019231;28;20030;-77
2021/12/28 11:41:44;;;;;;;12.15;3.38;;;13.30;99.90;;;;;;5019262;28;20423;-76
2021/12/28 11:44:10;;;;;;;5.18;2.45;;;13.30;99.90;;;;;;5018281;28;20053;-77
2021/12/28 11:46:36;;;;;;;11.60;4.57;;;13.20;99.90;;;;;;5023166;28;20064;-77
2021/12/28 11:49:04;;;;;;;8.35;3.20;;;13.30;99.90;;;;;;5039357;28;20029;-77
2021/12/28 11:51:30;;;;;;;16.77;4.82;;;13.20;99.90;;;;;;5039019;28;20087;-77
2021/12/28 11:53:58;;;;;;;12.45;3.60;;;13.20;99.90;;;;;;5038818;28;20060;-77
2021/12/28 11:56:30;;;;;;;14.32;3.30;;;13.20;99.90;;;;;;5027156;28;20403;-78
2021/12/28 11:59:06;;;;;;;12.77;3.60;;;13.10;99.90;;;;;;5019142;28;20564;-78
2021/12/28 12:01:41;;;;;;;20.75;3.85;;;13.10;99.90;;;;;;5019130;28;20021;-77
2021/12/28 12:04:34;;;;;;;14.13;3.78;;;13.00;99.90;;;;;;5017646;28;20084;-77
2021/12/28 12:07:12;;;;;;;13.90;4.07;;;13.00;99.90;;;;;;5019225;28;20399;-77
2021/12/28 12:09:50;;;;;;;12.23;4.80;;;13.00;99.90;;;;;;5018580;28;20060;-77
2021/12/28 12:12:20;;;;;;;13.02;4.75;;;12.90;99.90;;;;;;5018575;28;20087;-78
2021/12/28 12:14:52;;;;;;;12.70;5.50;;;12.90;99.90;;;;;;5017505;28;20037;-77
2021/12/28 12:17:39;;;;;;;11.60;4.30;;;12.90;99.90;;;;;;5018892;28;20054;-77
2021/12/28 12:20:20;;;;;;;14.05;4.65;;;13.00;99.90;;;;;;5017754;28;20022;-77
2021/12/28 12:22:49;;;;;;;14.38;5.53;;;12.90;99.90;;;;;;5018754;28;20036;-76
2021/12/28 12:25:18;;;;;;;14.07;4.88;;;13.00;99.90;;;;;;5018299;28;20529;-76
2021/12/28 12:27:54;;;;;;;12.68;4.82;;;13.00;99.90;;;;;;5018607;28;20478;-77
2021/12/28 12:30:26;;;;;;;14.88;4.13;;;13.00;99.90;;;;;;5017963;28;20398;-77
2021/12/28 12:32:58;;;;;;;13.00;4.88;;;13.00;99.90;;;;;;5016911;28;20096;-77
2021/12/28 12:35:41;;;;;;;12.00;4.15;;;12.90;99.90;;;;;;5018422;28;20034;-76
2021/12/28 12:38:12;;;;;;;18.25;4.18;;;12.90;99.90;;;;;;5017826;28;20018;-77
2021/12/28 12:40:59;;;;;;;15.48;4.93;;;13.00;99.90;;;;;;5016618;28;20018;-76